sensor_id;sensor_type;location;lat;lon;timestamp;temperature;humidity
22288;DHT22;11312;51.464;6.968;2022-09-27T00:00:26;10.90;99.90
22288;DHT22;11312;51.464;6.968;2022-09-27T00:02:52;10.90;99.90
22288;DHT22;11312;51.464;6.968;2022-09-27T00:05:17;10.90;99.90
22288;DHT22;11312;51.464;6.968;2022-09-27T00:07:44;10.80;99.90
22288;DHT22;11312;51.464;6.968;2022-09-27T00:10:11;10.90;99.90
22288;DHT22;11312;51.464;6.968;2022-09-27T00:12:37;10.70;99.90
22288;DHT22;11312;51.464;6.968;2022-09-27T00:15:03;10.80;99.90
22288;DHT22;11312;51.464;6.968;2022-09-27T00:17:29;10.70;99.90
22288;DHT22;11312;51.464;6.968;2022-09-27T00:19:58;10.70;99.90
22288;DHT22;11312;51.464;6.968;2022-09-27T00:22:24;10.70;99.90
22288;DHT22;11312;51.464;6.968;2022-09-27T00:24:51;10.60;99.90
22288;DHT22;11312;51.464;6.968;2022-09-27T00:27:17;10.60;99.90
22288;DHT22;11312;51.464;6.968;2022-09-27T00:29:44;10.60;99.90
22288;DHT22;11312;51.464;6.968;2022-09-27T00:32:10;10.60;99.90
22288;DHT22;11312;51.464;6.968;2022-09-27T00:34:38;10.60;99.90
22288;DHT22;11312;51.464;6.968;2022-09-27T00:37:04;10.60;99.90
22288;DHT22;11312;51.464;6.968;2022-09-27T00:39:30;10.60;99.90
22288;DHT22;11312;51.464;6.968;2022-09-27T00:41:55;10.60;99.90
22288;DHT22;11312;51.464;6.968;2022-09-27T00:47:29;10.70;99.90
22288;DHT22;11312;51.464;6.968;2022-09-27T00:52:34;10.60;99.90
22288;DHT22;11312;51.464;6.968;2022-09-27T00:55:06;10.70;99.90
22288;DHT22;11312;51.464;6.968;2022-09-27T00:57:33;10.70;99.90
22288;DHT22;11312;51.464;6.968;2022-09-27T01:00:05;10.70;99.90
22288;DHT22;11312;51.464;6.968;2022-09-27T01:02:32;10.70;99.90
22288;DHT22;11312;51.464;6.968;2022-09-27T01:05:00;10.70;99.90
22288;DHT22;11312;51.464;6.968;2022-09-27T01:07:25;10.70;99.90
22288;DHT22;11312;51.464;6.968;2022-09-27T01:09:51;10.60;99.90
22288;DHT22;11312;51.464;6.968;2022-09-27T01:17:29;10.70;99.90
22288;DHT22;11312;51.464;6.968;2022-09-27T01:33:52;10.70;99.90
22288;DHT22;11312;51.464;6.968;2022-09-27T01:36:55;10.70;99.90
22288;DHT22;11312;51.464;6.968;2022-09-27T01:42:21;10.70;99.90
22288;DHT22;11312;51.464;6.968;2022-09-27T01:44:56;10.60;99.90
22288;DHT22;11312;51.464;6.968;2022-09-27T01:47:48;10.70;99.90
22288;DHT22;11312;51.464;6.968;2022-09-27T01:50:23;10.70;99.90
22288;DHT22;11312;51.464;6.968;2022-09-27T01:53:14;10.50;99.90
22288;DHT22;11312;51.464;6.968;2022-09-27T01:55:42;10.70;99.90
22288;DHT22;11312;51.464;6.968;2022-09-27T01:58:49;10.70;99.90
22288;DHT22;11312;51.464;6.968;2022-09-27T02:01:08;10.50;99.90
22288;DHT22;11312;51.464;6.968;2022-09-27T02:03:36;10.60;99.90
22288;DHT22;11312;51.464;6.968;2022-09-27T02:06:10;10.70;99.90
22288;DHT22;11312;51.464;6.968;2022-09-27T02:11:12;10.60;99.90
22288;DHT22;11312;51.464;6.968;2022-09-27T02:13:52;10.60;99.90
22288;DHT22;11312;51.464;6.968;2022-09-27T02:24:57;10.60;99.90
22288;DHT22;11312;51.464;6.968;2022-09-27T02:30:26;10.50;99.90
22288;DHT22;11312;51.464;6.968;2022-09-27T02:32:52;10.40;99.90
22288;DHT22;11312;51.464;6.968;2022-09-27T02:35:25;10.50;99.90
22288;DHT22;11312;51.464;6.968;2022-09-27T02:37:52;10.40;99.90
22288;DHT22;11312;51.464;6.968;2022-09-27T02:40:19;10.50;99.90
22288;DHT22;11312;51.464;6.968;2022-09-27T02:42:45;10.40;99.90
22288;DHT22;11312;51.464;6.968;2022-09-27T02:45:11;10.40;99.90
22288;DHT22;11312;51.464;6.968;2022-09-27T02:50:51;10.40;99.90
22288;DHT22;11312;51.464;6.968;2022-09-27T02:53:37;10.50;99.90
22288;DHT22;11312;51.464;6.968;2022-09-27T02:56:13;10.50;99.90
22288;DHT22;11312;51.464;6.968;2022-09-27T03:04:18;10.50;99.90
22288;DHT22;11312;51.464;6.968;2022-09-27T03:06:48;10.70;99.90
22288;DHT22;11312;51.464;6.968;2022-09-27T03:09:23;10.50;99.90
22288;DHT22;11312;51.464;6.968;2022-09-27T03:11:49;10.40;99.90
22288;DHT22;11312;51.464;6.968;2022-09-27T03:14:15;10.50;99.90
22288;DHT22;11312;51.464;6.968;2022-09-27T03:16:41;10.80;99.90
22288;DHT22;11312;51.464;6.968;2022-09-27T03:19:08;10.20;99.90
22288;DHT22;11312;51.464;6.968;2022-09-27T03:21:34;10.40;99.90
22288;DHT22;11312;51.464;6.968;2022-09-27T03:24:00;10.30;99.90
22288;DHT22;11312;51.464;6.968;2022-09-27T03:26:25;10.30;99.90
22288;DHT22;11312;51.464;6.968;2022-09-27T03:28:51;10.30;99.90
22288;DHT22;11312;51.464;6.968;2022-09-27T03:31:17;10.20;99.90
22288;DHT22;11312;51.464;6.968;2022-09-27T03:33:43;10.20;99.90
22288;DHT22;11312;51.464;6.968;2022-09-27T03:36:09;10.30;99.90
22288;DHT22;11312;51.464;6.968;2022-09-27T03:38:36;10.20;99.90
22288;DHT22;11312;51.464;6.968;2022-09-27T03:41:02;10.20;99.90
22288;DHT22;11312;51.464;6.968;2022-09-27T03:43:29;10.20;99.90
22288;DHT22;11312;51.464;6.968;2022-09-27T03:45:55;10.20;99.90
22288;DHT22;11312;51.464;6.968;2022-09-27T03:48:20;10.20;99.90
22288;DHT22;11312;51.464;6.968;2022-09-27T03:50:46;10.20;99.90
22288;DHT22;11312;51.464;6.968;2022-09-27T03:53:12;10.10;99.90
22288;DHT22;11312;51.464;6.968;2022-09-27T03:55:37;10.10;99.90
22288;DHT22;11312;51.464;6.968;2022-09-27T03:58:03;10.10;99.90
22288;DHT22;11312;51.464;6.968;2022-09-27T04:00:29;10.10;99.90
22288;DHT22;11312;51.464;6.968;2022-09-27T04:02:57;10.10;99.90
22288;DHT22;11312;51.464;6.968;2022-09-27T04:05:25;9.90;99.90
22288;DHT22;11312;51.464;6.968;2022-09-27T04:07:51;9.90;99.90
22288;DHT22;11312;51.464;6.968;2022-09-27T04:10:16;9.90;99.90
22288;DHT22;11312;51.464;6.968;2022-09-27T04:12:43;10.00;99.90
22288;DHT22;11312;51.464;6.968;2022-09-27T04:15:09;9.90;99.90
22288;DHT22;11312;51.464;6.968;2022-09-27T04:17:35;9.90;99.90
22288;DHT22;11312;51.464;6.968;2022-09-27T04:20:01;9.80;99.90
22288;DHT22;11312;51.464;6.968;2022-09-27T04:22:28;9.70;99.90
22288;DHT22;11312;51.464;6.968;2022-09-27T04:24:54;9.70;99.90
22288;DHT22;11312;51.464;6.968;2022-09-27T04:27:19;9.70;99.90
22288;DHT22;11312;51.464;6.968;2022-09-27T04:29:46;9.70;99.90
22288;DHT22;11312;51.464;6.968;2022-09-27T04:32:13;9.70;99.90
22288;DHT22;11312;51.464;6.968;2022-09-27T04:34:39;9.70;99.90
22288;DHT22;11312;51.464;6.968;2022-09-27T04:37:24;9.60;99.90
22288;DHT22;11312;51.464;6.968;2022-09-27T04:39:50;9.60;99.90
22288;DHT22;11312;51.464;6.968;2022-09-27T04:42:16;9.50;99.90
22288;DHT22;11312;51.464;6.968;2022-09-27T04:44:42;9.60;99.90
22288;DHT22;11312;51.464;6.968;2022-09-27T04:47:09;9.50;99.90
22288;DHT22;11312;51.464;6.968;2022-09-27T04:49:35;9.60;99.90
22288;DHT22;11312;51.464;6.968;2022-09-27T04:52:01;9.60;99.90
22288;DHT22;11312;51.464;6.968;2022-09-27T04:54:26;9.60;99.90
22288;DHT22;11312;51.464;6.968;2022-09-27T04:56:53;9.40;99.90
22288;DHT22;11312;51.464;6.968;2022-09-27T04:59:19;9.40;99.90
22288;DHT22;11312;51.464;6.968;2022-09-27T05:01:46;9.50;99.90
22288;DHT22;11312;51.464;6.968;2022-09-27T05:04:11;9.40;99.90
22288;DHT22;11312;51.464;6.968;2022-09-27T05:06:37;9.50;99.90
22288;DHT22;11312;51.464;6.968;2022-09-27T05:09:03;9.50;99.90
22288;DHT22;11312;51.464;6.968;2022-09-27T05:11:28;9.40;99.90
22288;DHT22;11312;51.464;6.968;2022-09-27T05:13:54;9.50;99.90
22288;DHT22;11312;51.464;6.968;2022-09-27T05:16:20;9.50;99.90
22288;DHT22;11312;51.464;6.968;2022-09-27T05:18:45;9.50;99.90
22288;DHT22;11312;51.464;6.968;2022-09-27T05:21:11;9.50;99.90
22288;DHT22;11312;51.464;6.968;2022-09-27T05:23:37;9.50;99.90
22288;DHT22;11312;51.464;6.968;2022-09-27T05:26:06;9.50;99.90
22288;DHT22;11312;51.464;6.968;2022-09-27T05:28:32;9.50;99.90
22288;DHT22;11312;51.464;6.968;2022-09-27T05:31:00;9.40;99.90
22288;DHT22;11312;51.464;6.968;2022-09-27T05:33:26;9.40;99.90
22288;DHT22;11312;51.464;6.968;2022-09-27T05:35:56;9.40;99.90
22288;DHT22;11312;51.464;6.968;2022-09-27T05:38:22;9.40;99.90
22288;DHT22;11312;51.464;6.968;2022-09-27T05:40:48;9.30;99.90
22288;DHT22;11312;51.464;6.968;2022-09-27T05:43:16;9.30;99.90
22288;DHT22;11312;51.464;6.968;2022-09-27T05:45:43;9.30;99.90
22288;DHT22;11312;51.464;6.968;2022-09-27T05:48:09;9.30;99.90
22288;DHT22;11312;51.464;6.968;2022-09-27T05:50:37;9.30;99.90
22288;DHT22;11312;51.464;6.968;2022-09-27T05:53:03;9.30;99.90
22288;DHT22;11312;51.464;6.968;2022-09-27T05:55:28;9.50;99.90
22288;DHT22;11312;51.464;6.968;2022-09-27T05:58:05;9.50;99.90
22288;DHT22;11312;51.464;6.968;2022-09-27T06:00:31;9.60;99.90
22288;DHT22;11312;51.464;6.968;2022-09-27T06:02:58;9.40;99.90
22288;DHT22;11312;51.464;6.968;2022-09-27T06:05:26;9.50;99.90
22288;DHT22;11312;51.464;6.968;2022-09-27T06:08:01;9.60;99.90
22288;DHT22;11312;51.464;6.968;2022-09-27T06:10:28;9.50;99.90
22288;DHT22;11312;51.464;6.968;2022-09-27T06:13:02;9.50;99.90
22288;DHT22;11312;51.464;6.968;2022-09-27T06:15:29;9.50;99.90
22288;DHT22;11312;51.464;6.968;2022-09-27T06:17:55;9.60;99.90
22288;DHT22;11312;51.464;6.968;2022-09-27T06:20:21;9.60;99.90
22288;DHT22;11312;51.464;6.968;2022-09-27T06:22:47;9.50;99.90
22288;DHT22;11312;51.464;6.968;2022-09-27T06:25:13;9.50;99.90
22288;DHT22;11312;51.464;6.968;2022-09-27T06:27:39;9.40;99.90
22288;DHT22;11312;51.464;6.968;2022-09-27T06:30:05;9.50;99.90
22288;DHT22;11312;51.464;6.968;2022-09-27T06:32:30;9.50;99.90
22288;DHT22;11312;51.464;6.968;2022-09-27T06:34:57;9.50;99.90
22288;DHT22;11312;51.464;6.968;2022-09-27T06:37:26;9.50;99.90
22288;DHT22;11312;51.464;6.968;2022-09-27T06:39:52;9.60;99.90
22288;DHT22;11312;51.464;6.968;2022-09-27T06:42:18;9.60;99.90
22288;DHT22;11312;51.464;6.968;2022-09-27T06:44:44;9.60;99.90
22288;DHT22;11312;51.464;6.968;2022-09-27T06:47:13;9.60;99.90
22288;DHT22;11312;51.464;6.968;2022-09-27T06:49:39;9.40;99.90
22288;DHT22;11312;51.464;6.968;2022-09-27T06:52:05;9.50;99.90
22288;DHT22;11312;51.464;6.968;2022-09-27T06:54:30;9.40;99.90
22288;DHT22;11312;51.464;6.968;2022-09-27T06:56:56;9.60;99.90
22288;DHT22;11312;51.464;6.968;2022-09-27T06:59:22;9.60;99.90
22288;DHT22;11312;51.464;6.968;2022-09-27T07:02:06;9.70;99.90
22288;DHT22;11312;51.464;6.968;2022-09-27T07:04:32;9.70;99.90
22288;DHT22;11312;51.464;6.968;2022-09-27T07:06:57;9.70;99.90
22288;DHT22;11312;51.464;6.968;2022-09-27T07:09:23;9.80;99.90
22288;DHT22;11312;51.464;6.968;2022-09-27T07:11:49;9.80;99.90
22288;DHT22;11312;51.464;6.968;2022-09-27T07:14:14;9.80;99.90
22288;DHT22;11312;51.464;6.968;2022-09-27T07:16:42;9.90;99.90
22288;DHT22;11312;51.464;6.968;2022-09-27T07:19:08;10.00;99.90
22288;DHT22;11312;51.464;6.968;2022-09-27T07:21:36;10.00;99.90
22288;DHT22;11312;51.464;6.968;2022-09-27T07:24:01;10.10;99.90
22288;DHT22;11312;51.464;6.968;2022-09-27T07:26:27;10.10;99.90
22288;DHT22;11312;51.464;6.968;2022-09-27T07:28:52;10.10;99.90
22288;DHT22;11312;51.464;6.968;2022-09-27T07:31:19;10.50;99.90
22288;DHT22;11312;51.464;6.968;2022-09-27T07:33:44;12.50;99.90
22288;DHT22;11312;51.464;6.968;2022-09-27T07:36:11;13.30;99.90
22288;DHT22;11312;51.464;6.968;2022-09-27T07:38:37;13.30;99.90
22288;DHT22;11312;51.464;6.968;2022-09-27T07:41:07;11.80;99.90
22288;DHT22;11312;51.464;6.968;2022-09-27T07:43:33;11.10;99.90
22288;DHT22;11312;51.464;6.968;2022-09-27T07:45:59;11.00;99.90
22288;DHT22;11312;51.464;6.968;2022-09-27T07:48:24;10.80;99.90
22288;DHT22;11312;51.464;6.968;2022-09-27T07:50:51;10.60;99.90
22288;DHT22;11312;51.464;6.968;2022-09-27T07:53:17;10.60;99.90
22288;DHT22;11312;51.464;6.968;2022-09-27T07:55:43;10.70;99.90
22288;DHT22;11312;51.464;6.968;2022-09-27T07:58:10;10.60;99.90
22288;DHT22;11312;51.464;6.968;2022-09-27T08:00:37;10.60;99.90
22288;DHT22;11312;51.464;6.968;2022-09-27T08:03:10;10.70;99.90
22288;DHT22;11312;51.464;6.968;2022-09-27T08:05:38;10.70;99.90
22288;DHT22;11312;51.464;6.968;2022-09-27T08:08:04;10.70;99.90
22288;DHT22;11312;51.464;6.968;2022-09-27T08:10:31;10.70;99.90
22288;DHT22;11312;51.464;6.968;2022-09-27T08:12:58;10.80;99.90
22288;DHT22;11312;51.464;6.968;2022-09-27T08:15:25;10.90;99.90
22288;DHT22;11312;51.464;6.968;2022-09-27T08:17:53;10.50;99.90
22288;DHT22;11312;51.464;6.968;2022-09-27T08:20:19;10.40;99.90
22288;DHT22;11312;51.464;6.968;2022-09-27T08:22:44;10.40;99.90
22288;DHT22;11312;51.464;6.968;2022-09-27T08:25:10;10.70;99.90
22288;DHT22;11312;51.464;6.968;2022-09-27T08:27:36;11.00;99.90
22288;DHT22;11312;51.464;6.968;2022-09-27T08:30:02;11.80;99.90
22288;DHT22;11312;51.464;6.968;2022-09-27T08:32:28;12.30;99.90
22288;DHT22;11312;51.464;6.968;2022-09-27T08:34:55;11.70;99.90
22288;DHT22;11312;51.464;6.968;2022-09-27T08:37:21;11.80;99.90
22288;DHT22;11312;51.464;6.968;2022-09-27T08:39:46;11.80;99.90
22288;DHT22;11312;51.464;6.968;2022-09-27T08:42:30;11.50;99.90
22288;DHT22;11312;51.464;6.968;2022-09-27T08:45:08;11.30;99.90
22288;DHT22;11312;51.464;6.968;2022-09-27T08:47:45;11.30;99.90
22288;DHT22;11312;51.464;6.968;2022-09-27T08:50:27;11.10;99.90
22288;DHT22;11312;51.464;6.968;2022-09-27T08:53:01;11.10;99.90
22288;DHT22;11312;51.464;6.968;2022-09-27T08:55:48;11.10;99.90
22288;DHT22;11312;51.464;6.968;2022-09-27T09:01:24;10.80;99.90
22288;DHT22;11312;51.464;6.968;2022-09-27T09:03:55;11.10;99.90
22288;DHT22;11312;51.464;6.968;2022-09-27T09:06:27;11.00;99.90
22288;DHT22;11312;51.464;6.968;2022-09-27T09:09:24;10.70;99.90
22288;DHT22;11312;51.464;6.968;2022-09-27T09:17:46;10.80;99.90
22288;DHT22;11312;51.464;6.968;2022-09-27T09:23:02;10.80;99.90
22288;DHT22;11312;51.464;6.968;2022-09-27T09:28:21;10.90;99.90
22288;DHT22;11312;51.464;6.968;2022-09-27T09:30:56;11.00;99.90
22288;DHT22;11312;51.464;6.968;2022-09-27T09:33:31;11.00;99.90
22288;DHT22;11312;51.464;6.968;2022-09-27T09:38:45;10.90;99.90
22288;DHT22;11312;51.464;6.968;2022-09-27T09:46:56;10.70;99.90
22288;DHT22;11312;51.464;6.968;2022-09-27T09:49:32;10.70;99.90
22288;DHT22;11312;51.464;6.968;2022-09-27T09:52:10;10.70;99.90
22288;DHT22;11312;51.464;6.968;2022-09-27T09:54:55;10.60;99.90
22288;DHT22;11312;51.464;6.968;2022-09-27T09:57:28;10.70;99.90
22288;DHT22;11312;51.464;6.968;2022-09-27T10:00:00;10.60;99.90
22288;DHT22;11312;51.464;6.968;2022-09-27T10:04:59;10.90;99.90
22288;DHT22;11312;51.464;6.968;2022-09-27T10:07:26;11.00;99.90
22288;DHT22;11312;51.464;6.968;2022-09-27T10:09:55;11.10;99.90
22288;DHT22;11312;51.464;6.968;2022-09-27T10:12:21;11.10;99.90
22288;DHT22;11312;51.464;6.968;2022-09-27T10:14:48;11.00;99.90
22288;DHT22;11312;51.464;6.968;2022-09-27T10:17:18;11.20;99.90
22288;DHT22;11312;51.464;6.968;2022-09-27T10:19:46;11.00;99.90
22288;DHT22;11312;51.464;6.968;2022-09-27T10:22:18;11.00;99.90
22288;DHT22;11312;51.464;6.968;2022-09-27T10:27:20;11.30;99.90
22288;DHT22;11312;51.464;6.968;2022-09-27T10:29:55;11.40;99.90
22288;DHT22;11312;51.464;6.968;2022-09-27T10:32:31;11.40;99.90
22288;DHT22;11312;51.464;6.968;2022-09-27T10:40:41;12.50;99.90
22288;DHT22;11312;51.464;6.968;2022-09-27T10:43:27;12.90;99.90
22288;DHT22;11312;51.464;6.968;2022-09-27T10:46:11;13.00;99.90
22288;DHT22;11312;51.464;6.968;2022-09-27T10:48:38;13.50;99.90
22288;DHT22;11312;51.464;6.968;2022-09-27T10:53:45;13.80;99.90
22288;DHT22;11312;51.464;6.968;2022-09-27T10:56:33;13.20;99.90
22288;DHT22;11312;51.464;6.968;2022-09-27T10:58:59;12.90;99.90
22288;DHT22;11312;51.464;6.968;2022-09-27T11:01:39;13.20;99.90
22288;DHT22;11312;51.464;6.968;2022-09-27T11:04:14;13.20;99.90
22288;DHT22;11312;51.464;6.968;2022-09-27T11:06:41;12.80;99.90
22288;DHT22;11312;51.464;6.968;2022-09-27T11:09:22;12.40;99.90
22288;DHT22;11312;51.464;6.968;2022-09-27T11:12:04;12.40;99.90
22288;DHT22;11312;51.464;6.968;2022-09-27T11:14:30;12.40;99.90
22288;DHT22;11312;51.464;6.968;2022-09-27T11:17:21;12.40;99.90
22288;DHT22;11312;51.464;6.968;2022-09-27T11:20:16;12.60;99.90
22288;DHT22;11312;51.464;6.968;2022-09-27T11:23:09;12.80;99.90
22288;DHT22;11312;51.464;6.968;2022-09-27T11:29:00;11.90;99.90
22288;DHT22;11312;51.464;6.968;2022-09-27T11:31:47;11.90;99.90
22288;DHT22;11312;51.464;6.968;2022-09-27T11:40:11;12.50;99.90
22288;DHT22;11312;51.464;6.968;2022-09-27T11:48:53;12.50;99.90
22288;DHT22;11312;51.464;6.968;2022-09-27T11:51:32;13.90;99.90
22288;DHT22;11312;51.464;6.968;2022-09-27T11:54:04;14.80;99.90
22288;DHT22;11312;51.464;6.968;2022-09-27T12:02:04;14.20;99.90
22288;DHT22;11312;51.464;6.968;2022-09-27T12:10:03;12.80;99.90
22288;DHT22;11312;51.464;6.968;2022-09-27T12:12:33;12.50;99.90
22288;DHT22;11312;51.464;6.968;2022-09-27T12:15:02;12.30;99.90
22288;DHT22;11312;51.464;6.968;2022-09-27T12:17:34;12.00;99.90
22288;DHT22;11312;51.464;6.968;2022-09-27T12:20:09;11.80;99.90
22288;DHT22;11312;51.464;6.968;2022-09-27T12:25:16;11.50;99.90
22288;DHT22;11312;51.464;6.968;2022-09-27T12:30:30;11.30;99.90
22288;DHT22;11312;51.464;6.968;2022-09-27T12:33:25;11.20;99.90
22288;DHT22;11312;51.464;6.968;2022-09-27T12:35:56;11.10;99.90
22288;DHT22;11312;51.464;6.968;2022-09-27T12:38:33;11.10;99.90
22288;DHT22;11312;51.464;6.968;2022-09-27T12:41:00;11.10;99.90
22288;DHT22;11312;51.464;6.968;2022-09-27T12:43:27;11.20;99.90
22288;DHT22;11312;51.464;6.968;2022-09-27T12:45:56;11.20;99.90
22288;DHT22;11312;51.464;6.968;2022-09-27T12:51:16;11.50;99.90
22288;DHT22;11312;51.464;6.968;2022-09-27T12:53:46;11.60;99.90
22288;DHT22;11312;51.464;6.968;2022-09-27T12:56:33;11.60;99.90
22288;DHT22;11312;51.464;6.968;2022-09-27T12:59:20;11.90;99.90
22288;DHT22;11312;51.464;6.968;2022-09-27T13:10:34;12.20;99.90
22288;DHT22;11312;51.464;6.968;2022-09-27T13:13:03;12.90;99.90
22288;DHT22;11312;51.464;6.968;2022-09-27T13:15:34;13.60;99.90
22288;DHT22;11312;51.464;6.968;2022-09-27T13:18:02;13.40;99.90
22288;DHT22;11312;51.464;6.968;2022-09-27T13:23:09;12.70;99.90
22288;DHT22;11312;51.464;6.968;2022-09-27T13:26:01;12.40;99.90
22288;DHT22;11312;51.464;6.968;2022-09-27T13:30:57;11.80;99.90
22288;DHT22;11312;51.464;6.968;2022-09-27T13:47:14;12.80;99.90
22288;DHT22;11312;51.464;6.968;2022-09-27T13:49:46;13.30;99.90
22288;DHT22;11312;51.464;6.968;2022-09-27T13:52:26;13.50;99.90
22288;DHT22;11312;51.464;6.968;2022-09-27T13:54:57;13.70;99.90
22288;DHT22;11312;51.464;6.968;2022-09-27T14:00:20;13.90;99.90
22288;DHT22;11312;51.464;6.968;2022-09-27T14:03:13;13.80;99.90
22288;DHT22;11312;51.464;6.968;2022-09-27T14:05:58;13.80;99.90
22288;DHT22;11312;51.464;6.968;2022-09-27T14:10:56;14.10;99.90
22288;DHT22;11312;51.464;6.968;2022-09-27T14:13:24;14.70;99.90
22288;DHT22;11312;51.464;6.968;2022-09-27T14:15:53;14.50;99.90
22288;DHT22;11312;51.464;6.968;2022-09-27T14:18:20;14.40;99.90
22288;DHT22;11312;51.464;6.968;2022-09-27T14:20:49;14.20;99.90
22288;DHT22;11312;51.464;6.968;2022-09-27T14:23:22;13.70;99.90
22288;DHT22;11312;51.464;6.968;2022-09-27T14:25:50;13.40;99.90
22288;DHT22;11312;51.464;6.968;2022-09-27T14:28:25;13.10;99.90
22288;DHT22;11312;51.464;6.968;2022-09-27T14:33:38;12.80;99.90
22288;DHT22;11312;51.464;6.968;2022-09-27T14:39:13;12.50;99.90
22288;DHT22;11312;51.464;6.968;2022-09-27T14:41:40;12.40;99.90
22288;DHT22;11312;51.464;6.968;2022-09-27T14:44:16;12.50;99.90
22288;DHT22;11312;51.464;6.968;2022-09-27T14:46:43;12.40;99.90
22288;DHT22;11312;51.464;6.968;2022-09-27T14:49:23;12.70;99.90
22288;DHT22;11312;51.464;6.968;2022-09-27T14:51:53;12.60;99.90
22288;DHT22;11312;51.464;6.968;2022-09-27T14:54:24;12.50;99.90
22288;DHT22;11312;51.464;6.968;2022-09-27T14:56:52;13.40;99.90
22288;DHT22;11312;51.464;6.968;2022-09-27T14:59:33;12.80;99.90
22288;DHT22;11312;51.464;6.968;2022-09-27T15:02:03;12.60;99.90
22288;DHT22;11312;51.464;6.968;2022-09-27T15:04:34;12.60;99.90
22288;DHT22;11312;51.464;6.968;2022-09-27T15:07:01;12.50;99.90
22288;DHT22;11312;51.464;6.968;2022-09-27T15:09:27;12.50;99.90
22288;DHT22;11312;51.464;6.968;2022-09-27T15:11:57;12.20;99.90
22288;DHT22;11312;51.464;6.968;2022-09-27T15:14:29;12.30;99.90
22288;DHT22;11312;51.464;6.968;2022-09-27T15:16:57;12.30;99.90
22288;DHT22;11312;51.464;6.968;2022-09-27T15:19:30;12.50;99.90
22288;DHT22;11312;51.464;6.968;2022-09-27T15:22:22;12.50;99.90
22288;DHT22;11312;51.464;6.968;2022-09-27T15:25:04;12.60;99.90
22288;DHT22;11312;51.464;6.968;2022-09-27T15:27:30;12.60;99.90
22288;DHT22;11312;51.464;6.968;2022-09-27T15:29:57;12.70;99.90
22288;DHT22;11312;51.464;6.968;2022-09-27T15:32:25;12.50;99.90
22288;DHT22;11312;51.464;6.968;2022-09-27T15:34:52;12.60;99.90
22288;DHT22;11312;51.464;6.968;2022-09-27T15:37:36;12.50;99.90
22288;DHT22;11312;51.464;6.968;2022-09-27T15:45:50;12.10;99.90
22288;DHT22;11312;51.464;6.968;2022-09-27T15:48:18;12.20;99.90
22288;DHT22;11312;51.464;6.968;2022-09-27T15:50:45;12.20;99.90
22288;DHT22;11312;51.464;6.968;2022-09-27T15:53:11;12.20;99.90
22288;DHT22;11312;51.464;6.968;2022-09-27T15:55:41;12.00;99.90
22288;DHT22;11312;51.464;6.968;2022-09-27T15:58:19;12.00;99.90
22288;DHT22;11312;51.464;6.968;2022-09-27T16:00:56;12.00;99.90
22288;DHT22;11312;51.464;6.968;2022-09-27T16:03:25;11.90;99.90
22288;DHT22;11312;51.464;6.968;2022-09-27T16:05:52;11.80;99.90
22288;DHT22;11312;51.464;6.968;2022-09-27T16:08:21;11.80;99.90
22288;DHT22;11312;51.464;6.968;2022-09-27T16:11:13;11.70;99.90
22288;DHT22;11312;51.464;6.968;2022-09-27T16:13:39;11.70;99.90
22288;DHT22;11312;51.464;6.968;2022-09-27T16:16:05;11.50;99.90
22288;DHT22;11312;51.464;6.968;2022-09-27T16:18:31;11.60;99.90
22288;DHT22;11312;51.464;6.968;2022-09-27T16:20:58;11.30;99.90
22288;DHT22;11312;51.464;6.968;2022-09-27T16:23:24;11.40;99.90
22288;DHT22;11312;51.464;6.968;2022-09-27T16:25:53;11.20;99.90
22288;DHT22;11312;51.464;6.968;2022-09-27T16:28:18;11.10;99.90
22288;DHT22;11312;51.464;6.968;2022-09-27T16:30:44;11.00;99.90
22288;DHT22;11312;51.464;6.968;2022-09-27T16:33:10;10.90;99.90
22288;DHT22;11312;51.464;6.968;2022-09-27T16:35:38;10.90;99.90
22288;DHT22;11312;51.464;6.968;2022-09-27T16:38:05;10.90;99.90
22288;DHT22;11312;51.464;6.968;2022-09-27T16:40:31;10.80;99.90
22288;DHT22;11312;51.464;6.968;2022-09-27T16:42:57;10.80;99.90
22288;DHT22;11312;51.464;6.968;2022-09-27T16:45:23;10.70;99.90
22288;DHT22;11312;51.464;6.968;2022-09-27T16:47:59;10.60;99.90
22288;DHT22;11312;51.464;6.968;2022-09-27T16:50:25;10.60;99.90
22288;DHT22;11312;51.464;6.968;2022-09-27T16:53:10;10.50;99.90
22288;DHT22;11312;51.464;6.968;2022-09-27T16:55:37;10.50;99.90
22288;DHT22;11312;51.464;6.968;2022-09-27T16:58:03;10.50;99.90
22288;DHT22;11312;51.464;6.968;2022-09-27T17:00:30;10.40;99.90
22288;DHT22;11312;51.464;6.968;2022-09-27T17:02:58;10.30;99.90
22288;DHT22;11312;51.464;6.968;2022-09-27T17:05:24;10.30;99.90
22288;DHT22;11312;51.464;6.968;2022-09-27T17:07:50;10.30;99.90
22288;DHT22;11312;51.464;6.968;2022-09-27T17:10:17;10.20;99.90
22288;DHT22;11312;51.464;6.968;2022-09-27T17:12:43;10.20;99.90
22288;DHT22;11312;51.464;6.968;2022-09-27T17:15:10;10.10;99.90
22288;DHT22;11312;51.464;6.968;2022-09-27T17:17:36;10.20;99.90
22288;DHT22;11312;51.464;6.968;2022-09-27T17:20:01;10.20;99.90
22288;DHT22;11312;51.464;6.968;2022-09-27T17:22:27;10.00;99.90
22288;DHT22;11312;51.464;6.968;2022-09-27T17:24:53;10.10;99.90
22288;DHT22;11312;51.464;6.968;2022-09-27T17:27:18;10.00;99.90
22288;DHT22;11312;51.464;6.968;2022-09-27T17:29:44;9.90;99.90
22288;DHT22;11312;51.464;6.968;2022-09-27T17:32:11;10.00;99.90
22288;DHT22;11312;51.464;6.968;2022-09-27T17:34:38;10.00;99.90
22288;DHT22;11312;51.464;6.968;2022-09-27T17:37:08;9.90;99.90
22288;DHT22;11312;51.464;6.968;2022-09-27T17:39:35;9.90;99.90
22288;DHT22;11312;51.464;6.968;2022-09-27T17:42:01;9.80;99.90
22288;DHT22;11312;51.464;6.968;2022-09-27T17:44:27;9.70;99.90
22288;DHT22;11312;51.464;6.968;2022-09-27T17:46:53;9.80;99.90
22288;DHT22;11312;51.464;6.968;2022-09-27T17:49:37;9.90;99.90
22288;DHT22;11312;51.464;6.968;2022-09-27T17:52:21;9.80;99.90
22288;DHT22;11312;51.464;6.968;2022-09-27T17:54:49;9.70;99.90
22288;DHT22;11312;51.464;6.968;2022-09-27T17:57:16;9.80;99.90
22288;DHT22;11312;51.464;6.968;2022-09-27T17:59:41;9.70;99.90
22288;DHT22;11312;51.464;6.968;2022-09-27T18:02:08;9.80;99.90
22288;DHT22;11312;51.464;6.968;2022-09-27T18:04:34;9.80;99.90
22288;DHT22;11312;51.464;6.968;2022-09-27T18:07:00;9.70;99.90
22288;DHT22;11312;51.464;6.968;2022-09-27T18:09:26;9.70;99.90
22288;DHT22;11312;51.464;6.968;2022-09-27T18:11:52;9.80;99.90
22288;DHT22;11312;51.464;6.968;2022-09-27T18:14:18;9.80;99.90
22288;DHT22;11312;51.464;6.968;2022-09-27T18:16:45;9.80;99.90
22288;DHT22;11312;51.464;6.968;2022-09-27T18:19:14;9.90;99.90
22288;DHT22;11312;51.464;6.968;2022-09-27T18:21:40;9.80;99.90
22288;DHT22;11312;51.464;6.968;2022-09-27T18:24:06;9.70;99.90
22288;DHT22;11312;51.464;6.968;2022-09-27T18:26:33;9.70;99.90
22288;DHT22;11312;51.464;6.968;2022-09-27T18:29:04;9.70;99.90
22288;DHT22;11312;51.464;6.968;2022-09-27T18:31:30;9.80;99.90
22288;DHT22;11312;51.464;6.968;2022-09-27T18:33:55;9.70;99.90
22288;DHT22;11312;51.464;6.968;2022-09-27T18:36:24;9.70;99.90